Time;durP1;ratioP1;P1;durP2;ratioP2;P2;SDS_P1;SDS_P2;PMS_P1;PMS_P2;Temp;Humidity;BMP_temperature;BMP_pressure;BME280_temperature;BME280_humidity;BME280_pressure;Samples;Min_cycle;Max_cycle;Signal;HPM_P1;HPM_P2
2023/03/22 00:01:45;;;;;;;4.27;3.57;;;;;;;7.96;100.00;100014.94;4913783;28;20477;-53
2023/03/22 00:04:11;;;;;;;4.10;3.80;;;;;;;7.87;100.00;100014.25;4914000;29;20461;-53
2023/03/22 00:06:38;;;;;;;4.23;3.10;;;;;;;7.66;100.00;100019.09;4900669;28;20550;-53
2023/03/22 00:09:05;;;;;;;4.47;3.63;;;;;;;7.68;100.00;100019.09;4913624;29;20457;-54
2023/03/22 00:11:31;;;;;;;4.60;4.10;;;;;;;7.53;100.00;100016.72;4909254;29;20505;-53
2023/03/22 00:13:58;;;;;;;3.07;2.87;;;;;;;7.46;100.00;100018.66;4913897;28;20497;-53
2023/03/22 00:16:25;;;;;;;3.50;3.20;;;;;;;7.50;100.00;100024.75;4913546;28;20453;-53
2023/03/22 00:18:51;;;;;;;3.10;2.80;;;;;;;7.56;100.00;100014.91;4913720;29;20476;-53
2023/03/22 00:21:18;;;;;;;2.77;2.57;;;;;;;7.59;100.00;100012.19;4913576;29;20959;-53
2023/03/22 00:23:45;;;;;;;3.07;2.87;;;;;;;7.52;100.00;100005.28;4888840;29;20552;-53
2023/03/22 00:26:12;;;;;;;2.73;2.53;;;;;;;7.52;100.00;100012.34;4913473;29;20458;-52
2023/03/22 00:28:39;;;;;;;3.00;2.80;;;;;;;7.48;100.00;100013.31;4913572;29;20464;-53
2023/03/22 00:31:06;;;;;;;7.70;4.63;;;;;;;7.49;100.00;100015.94;4913081;29;20547;-53
2023/03/22 00:33:33;;;;;;;2.93;2.60;;;;;;;7.67;100.00;100012.03;4913659;28;20457;-53
2023/03/22 00:36:09;;;;;;;2.60;2.50;;;;;;;7.54;100.00;100007.91;4913420;29;20480;-53
2023/03/22 00:38:37;;;;;;;3.57;3.13;;;;;;;7.45;100.00;100008.97;4918276;29;20453;-53
2023/03/22 00:41:17;;;;;;;3.60;3.30;;;;;;;7.36;100.00;100010.03;4919601;28;20465;-53
2023/03/22 00:43:45;;;;;;;3.10;2.80;;;;;;;7.38;100.00;100000.28;4919743;29;20483;-53
2023/03/22 00:46:13;;;;;;;2.43;2.33;;;;;;;7.18;100.00;99997.19;4919663;29;20536;-52
2023/03/22 00:48:39;;;;;;;3.47;3.27;;;;;;;7.15;100.00;99997.25;4919753;29;20489;-53
2023/03/22 00:51:07;;;;;;;3.90;2.37;;;;;;;7.17;100.00;99987.50;4919096;29;20503;-53
2023/03/22 00:53:35;;;;;;;5.77;3.77;;;;;;;7.09;100.00;99984.13;4919594;29;20492;-53
2023/03/22 00:56:04;;;;;;;3.23;3.00;;;;;;;7.17;100.00;99978.72;4919219;29;20453;-54
2023/03/22 00:58:31;;;;;;;3.13;2.93;;;;;;;7.24;100.00;99980.31;4919495;28;20980;-52
2023/03/22 01:00:57;;;;;;;4.87;3.33;;;;;;;7.35;100.00;99979.19;4919324;29;20488;-53
2023/03/22 01:03:24;;;;;;;13.00;4.43;;;;;;;7.34;100.00;99964.25;4919552;28;20483;-53
2023/03/22 01:05:54;;;;;;;2.47;2.27;;;;;;;7.39;100.00;99969.41;4913331;28;20449;-53
2023/03/22 01:08:22;;;;;;;4.70;3.03;;;;;;;7.74;100.00;99976.63;4912425;29;20523;-51
2023/03/22 01:10:49;;;;;;;3.97;3.67;;;;;;;7.53;100.00;99977.06;4918032;28;20879;-53
2023/03/22 01:13:16;;;;;;;4.30;3.90;;;;;;;7.45;100.00;99968.44;4914486;29;20487;-53
2023/03/22 01:15:43;;;;;;;4.80;4.17;;;;;;;7.21;100.00;99970.69;4919441;28;20552;-53
2023/03/22 01:18:10;;;;;;;4.23;3.53;;;;;;;7.17;100.00;99974.28;4919198;29;20453;-53
2023/03/22 01:20:36;;;;;;;4.40;3.60;;;;;;;7.18;100.00;99965.47;4919248;28;20511;-52
2023/03/22 01:23:03;;;;;;;12.50;3.53;;;;;;;7.15;100.00;99973.47;4919100;28;20457;-53
2023/03/22 01:25:30;;;;;;;4.33;3.30;;;;;;;7.12;100.00;99974.38;4919382;29;20464;-53
2023/03/22 01:27:56;;;;;;;2.10;2.00;;;;;;;7.02;100.00;99961.38;4919131;28;20608;-53
2023/03/22 01:30:23;;;;;;;2.73;2.03;;;;;;;6.91;100.00;99966.88;4919110;28;20493;-53
2023/03/22 01:32:50;;;;;;;2.00;1.90;;;;;;;6.83;100.00;99963.47;4919071;29;20881;-52
2023/03/22 01:35:16;;;;;;;2.00;1.90;;;;;;;6.82;100.00;99959.97;4919101;28;20515;-53
2023/03/22 01:37:43;;;;;;;3.73;3.37;;;;;;;6.91;100.00;99958.94;4919135;29;20453;-53
2023/03/22 01:40:11;;;;;;;3.70;2.67;;;;;;;6.98;100.00;99957.03;4919304;28;20469;-53
2023/03/22 01:42:38;;;;;;;2.73;2.33;;;;;;;6.93;100.00;99953.63;4918815;29;20972;-53
2023/03/22 01:45:13;;;;;;;3.37;3.13;;;;;;;6.94;100.00;99956.22;4918992;29;20476;-53
2023/03/22 01:47:50;;;;;;;4.40;3.53;;;;;;;6.73;100.00;99951.38;4918725;29;20456;-53
2023/03/22 01:50:17;;;;;;;3.33;2.97;;;;;;;6.60;100.00;99948.09;4915041;28;20519;-53
2023/03/22 01:52:43;;;;;;;2.70;1.87;;;;;;;6.71;100.00;99951.38;4915688;28;20835;-53
2023/03/22 01:55:11;;;;;;;9.00;4.17;;;;;;;6.65;100.00;99940.06;4916074;28;20461;-52
2023/03/22 01:57:41;;;;;;;4.83;2.83;;;;;;;6.56;100.00;99937.56;4915577;29;20463;-53
2023/03/22 02:00:14;;;;;;;2.03;1.93;;;;;;;6.47;100.00;99939.50;4915215;29;20488;-53
2023/03/22 02:02:42;;;;;;;3.00;1.70;;;;;;;6.51;100.00;99929.75;4892525;29;20511;-52
2023/03/22 02:05:11;;;;;;;2.80;2.60;;;;;;;6.70;100.00;99928.50;4914892;28;20467;-53
2023/03/22 02:07:39;;;;;;;1.03;0.93;;;;;;;6.42;100.00;99929.91;4904061;29;20515;-53
2023/03/22 02:10:15;;;;;;;1.70;1.60;;;;;;;6.30;100.00;99940.66;4915496;29;20564;-53
2023/03/22 02:13:08;;;;;;;2.20;2.03;;;;;;;6.17;100.00;99932.13;4910984;29;20515;-53
2023/03/22 02:15:42;;;;;;;1.17;1.13;;;;;;;6.50;100.00;99931.53;4915557;29;20456;-53
2023/03/22 02:18:39;;;;;;;3.00;2.90;;;;;;;6.41;100.00;99922.88;4915442;29;20821;-53
2023/03/22 02:21:24;;;;;;;2.53;2.43;;;;;;;6.43;100.00;99923.72;4915229;28;20572;-53
2023/03/22 02:24:28;;;;;;;5.23;1.57;;;;;;;6.32;100.00;99918.66;4892353;29;20457;-53
2023/03/22 02:27:24;;;;;;;2.43;2.23;;;;;;;6.54;100.00;99919.13;4915252;29;20460;-53
2023/03/22 02:30:08;;;;;;;6.93;3.90;;;;;;;6.58;100.00;99920.84;4915133;29;20484;-53
2023/03/22 02:32:49;;;;;;;4.50;2.13;;;;;;;6.65;100.00;99934.78;4915283;29;20454;-53
2023/03/22 02:35:30;;;;;;;10.80;4.10;;;;;;;6.53;100.00;99935.88;4915109;29;20457;-53
2023/03/22 02:38:21;;;;;;;2.30;1.73;;;;;;;6.49;100.00;99928.91;4914889;29;20449;-53
2023/03/22 02:41:26;;;;;;;3.57;3.27;;;;;;;6.99;100.00;99929.72;4914898;29;20469;-53
2023/03/22 02:43:58;;;;;;;16.47;5.50;;;;;;;6.75;100.00;99925.78;4961121;28;20868;-53
2023/03/22 02:46:35;;;;;;;4.73;3.77;;;;;;;6.61;100.00;99918.13;4924245;28;20544;-53
2023/03/22 02:49:35;;;;;;;4.13;4.00;;;;;;;6.36;100.00;99920.34;4914871;29;20448;-52
2023/03/22 02:52:21;;;;;;;4.50;4.13;;;;;;;6.21;100.00;99916.19;4915734;28;20504;-53
2023/03/22 02:55:04;;;;;;;2.47;2.37;;;;;;;6.03;100.00;99913.88;4893582;29;20449;-53
2023/03/22 02:58:01;;;;;;;4.37;3.23;;;;;;;6.04;100.00;99917.38;4914562;29;20449;-53
2023/03/22 03:00:29;;;;;;;5.30;2.40;;;;;;;5.90;100.00;99925.50;4914247;29;20477;-53
2023/03/22 03:03:10;;;;;;;4.13;3.73;;;;;;;5.88;100.00;99912.28;4914662;29;20922;-53
2023/03/22 03:05:44;;;;;;;2.83;2.63;;;;;;;5.91;100.00;99922.84;4910646;28;20451;-53
2023/03/22 03:08:13;;;;;;;2.73;1.37;;;;;;;5.95;100.00;99921.03;4907493;29;20453;-53
2023/03/22 03:10:40;;;;;;;4.33;3.60;;;;;;;6.05;100.00;99917.34;4914407;28;20576;-53
2023/03/22 03:13:11;;;;;;;3.50;2.40;;;;;;;5.75;100.00;99917.78;4909987;29;20487;-53
2023/03/22 03:15:42;;;;;;;2.17;2.07;;;;;;;5.68;100.00;99922.28;4890789;29;20464;-53
2023/03/22 03:18:25;;;;;;;2.73;2.30;;;;;;;5.55;100.00;99903.13;4914692;29;20449;-52
2023/03/22 03:21:01;;;;;;;39.77;1.67;;;;;;;5.57;100.00;99911.00;4914403;29;20475;-53
2023/03/22 03:23:36;;;;;;;1.40;1.30;;;;;;;5.43;100.00;99907.72;4914810;29;20547;-54
2023/03/22 03:26:15;;;;;;;1.40;1.30;;;;;;;5.92;100.00;99905.25;4914306;29;21013;-53
2023/03/22 03:28:56;;;;;;;1.57;1.47;;;;;;;5.66;100.00;99900.34;4891437;29;20489;-53
2023/03/22 03:31:42;;;;;;;2.93;1.63;;;;;;;5.71;100.00;99895.00;4914089;29;20503;-53
2023/03/22 03:34:29;;;;;;;3.50;2.23;;;;;;;5.58;100.00;99896.94;4914284;29;20520;-53
2023/03/22 03:37:03;;;;;;;1.03;1.03;;;;;;;5.51;100.00;99893.53;4893205;29;20456;-53
2023/03/22 03:39:33;;;;;;;2.63;2.43;;;;;;;5.46;100.00;99891.84;4914078;29;20468;-53
2023/03/22 03:42:02;;;;;;;1.13;1.07;;;;;;;5.40;100.00;99887.53;4914300;28;20453;-53
2023/03/22 03:44:30;;;;;;;1.80;1.70;;;;;;;5.32;100.00;99887.63;4914046;29;20459;-53
2023/03/22 03:46:57;;;;;;;0.50;0.50;;;;;;;5.37;100.00;99882.31;4913894;28;20457;-53
2023/03/22 03:49:25;;;;;;;1.60;1.23;;;;;;;5.29;100.00;99879.78;4914121;28;20481;-53
2023/03/22 03:51:54;;;;;;;1.37;1.27;;;;;;;5.28;100.00;99874.53;4913988;29;20508;-53
2023/03/22 03:54:22;;;;;;;1.43;1.33;;;;;;;5.20;100.00;99874.63;4913878;29;20958;-53
2023/03/22 03:56:48;;;;;;;11.93;1.73;;;;;;;5.12;100.00;99865.97;4913777;29;21020;-53
2023/03/22 03:59:16;;;;;;;6.93;1.60;;;;;;;5.32;100.00;99873.59;4913956;29;20480;-53
2023/03/22 04:01:48;;;;;;;19.30;1.53;;;;;;;5.17;100.00;99874.66;4914072;29;20453;-53
2023/03/22 04:04:25;;;;;;;1.67;1.57;;;;;;;5.38;100.00;99881.44;4914048;29;20453;-53
2023/03/22 04:06:58;;;;;;;2.00;1.80;;;;;;;5.23;100.00;99881.63;4901340;28;20453;-52
2023/03/22 04:09:27;;;;;;;4.00;1.70;;;;;;;5.18;100.00;99883.44;4913939;29;20888;-53
2023/03/22 04:11:54;;;;;;;0.33;0.27;;;;;;;5.00;100.00;99874.91;4907751;29;20863;-53
2023/03/22 04:14:21;;;;;;;1.20;1.10;;;;;;;4.93;100.00;99877.63;4913815;28;20467;-52
2023/03/22 04:16:48;;;;;;;1.40;1.30;;;;;;;4.87;100.00;99881.22;4913649;29;20512;-53
2023/03/22 04:19:16;;;;;;;0.90;0.90;;;;;;;4.78;100.00;99877.81;4913564;28;20496;-53
2023/03/22 04:21:42;;;;;;;1.57;1.47;;;;;;;4.74;100.00;99869.06;4913532;29;20453;-53
2023/03/22 04:24:09;;;;;;;1.80;1.63;;;;;;;4.78;100.00;99869.91;4913474;28;20459;-52
2023/03/22 04:26:35;;;;;;;2.90;1.27;;;;;;;4.76;100.00;99864.66;4912259;28;20454;-52
2023/03/22 04:29:02;;;;;;;5.30;1.57;;;;;;;4.87;100.00;99854.00;4913660;28;20536;-53
2023/03/22 04:31:30;;;;;;;1.83;1.53;;;;;;;4.70;100.00;99860.34;4913667;29;20493;-54
2023/03/22 04:33:59;;;;;;;1.73;1.63;;;;;;;4.81;100.00;99862.00;4913690;28;20461;-53
2023/03/22 04:36:29;;;;;;;1.43;1.40;;;;;;;4.82;100.00;99861.09;4913909;29;20489;-53
2023/03/22 04:38:56;;;;;;;7.83;1.13;;;;;;;4.74;100.00;99861.19;4914166;29;21048;-53
2023/03/22 04:41:23;;;;;;;1.70;1.47;;;;;;;4.81;100.00;99862.88;4913843;29;20540;-53
2023/03/22 04:43:50;;;;;;;3.77;2.17;;;;;;;4.73;100.00;99857.69;4913485;28;20476;-53
2023/03/22 04:46:16;;;;;;;1.07;1.07;;;;;;;4.56;100.00;99861.41;4913519;29;20475;-52
2023/03/22 04:48:43;;;;;;;1.03;0.93;;;;;;;4.36;100.00;99864.22;4913451;28;20457;-52
2023/03/22 04:51:10;;;;;;;2.70;1.40;;;;;;;4.65;100.00;99866.53;4913199;29;20493;-53
2023/03/22 04:53:39;;;;;;;3.70;1.80;;;;;;;4.65;100.00;99863.91;4913473;29;20457;-53
2023/03/22 04:56:09;;;;;;;1.50;1.40;;;;;;;4.81;100.00;99878.66;4913403;29;20805;-52
2023/03/22 04:58:38;;;;;;;1.57;1.47;;;;;;;4.91;100.00;99884.66;4913427;29;20826;-53
2023/03/22 05:01:06;;;;;;;1.70;1.60;;;;;;;4.90;100.00;99885.56;4913066;29;20508;-52
2023/03/22 05:03:35;;;;;;;1.73;1.63;;;;;;;4.91;100.00;99879.41;4912983;29;20453;-51
2023/03/22 05:06:05;;;;;;;0.60;0.60;;;;;;;4.66;100.00;99882.34;4905691;28;20454;-53
2023/03/22 05:08:32;;;;;;;1.60;0.70;;;;;;;4.67;100.00;99891.13;4909506;29;20467;-50
2023/03/22 05:11:10;;;;;;;2.63;1.80;;;;;;;4.91;100.00;99885.53;4912917;29;20480;-49
2023/03/22 05:13:37;;;;;;;1.67;1.53;;;;;;;4.89;100.00;99884.69;4910336;29;20911;-49
2023/03/22 05:16:05;;;;;;;1.37;1.13;;;;;;;4.70;100.00;99881.41;4913086;28;20827;-49
2023/03/22 05:18:32;;;;;;;1.40;1.10;;;;;;;4.41;100.00;99870.34;4912680;28;20499;-49
2023/03/22 05:20:59;;;;;;;2.77;1.30;;;;;;;4.58;100.00;99868.38;4913020;29;20483;-49
2023/03/22 05:23:26;;;;;;;0.70;0.70;;;;;;;4.76;100.00;99864.66;4912955;29;20461;-50
2023/03/22 05:25:53;;;;;;;1.20;1.00;;;;;;;4.82;100.00;99866.38;4915518;29;20857;-49
2023/03/22 05:28:20;;;;;;;1.33;0.70;;;;;;;4.85;100.00;99867.19;4916197;29;20453;-50
2023/03/22 05:30:48;;;;;;;2.93;1.37;;;;;;;4.91;100.00;99869.75;4915994;29;20516;-50
2023/03/22 05:33:15;;;;;;;1.50;1.40;;;;;;;5.19;100.00;99872.00;4915837;29;20503;-49
2023/03/22 05:35:42;;;;;;;2.93;1.70;;;;;;;5.61;100.00;99873.16;4916051;29;20489;-49
2023/03/22 05:38:09;;;;;;;1.80;1.70;;;;;;;5.41;100.00;99859.41;4915775;29;20844;-49
2023/03/22 05:40:36;;;;;;;4.90;2.23;;;;;;;5.56;100.00;99867.09;4915815;29;21029;-50
2023/03/22 05:43:03;;;;;;;2.23;1.37;;;;;;;5.31;100.00;99866.56;4915760;29;20482;-50
2023/03/22 05:45:31;;;;;;;2.40;2.20;;;;;;;5.11;100.00;99855.47;4915736;29;20512;-49
2023/03/22 05:47:57;;;;;;;2.50;2.03;;;;;;;4.92;100.00;99846.91;4915907;28;20453;-49
2023/03/22 05:50:24;;;;;;;1.43;1.33;;;;;;;5.34;100.00;99848.09;4915886;29;21052;-50
2023/03/22 05:52:50;;;;;;;2.00;1.90;;;;;;;5.20;100.00;99839.50;4915499;29;21006;-49
2023/03/22 05:55:18;;;;;;;2.33;1.43;;;;;;;5.24;100.00;99835.97;4915623;29;20489;-51
2023/03/22 05:57:45;;;;;;;2.57;2.37;;;;;;;5.25;100.00;99848.22;4915509;29;20492;-49
2023/03/22 06:00:15;;;;;;;1.93;1.73;;;;;;;5.72;100.00;99854.53;4915327;28;20491;-50
2023/03/22 06:02:42;;;;;;;6.40;2.47;;;;;;;5.65;100.00;99853.78;4890720;29;20461;-49
2023/03/22 06:05:11;;;;;;;0.80;0.80;;;;;;;5.71;100.00;99858.94;4914688;28;20453;-50
2023/03/22 06:07:38;;;;;;;5.43;3.40;;;;;;;5.78;100.00;99855.34;4904015;29;20461;-49
2023/03/22 06:10:06;;;;;;;7.53;1.33;;;;;;;5.88;100.00;99853.38;4915239;28;20473;-50
2023/03/22 06:12:33;;;;;;;4.20;2.17;;;;;;;6.01;100.00;99857.59;4911366;29;20547;-50
2023/03/22 06:15:00;;;;;;;1.57;1.37;;;;;;;6.13;100.00;99860.03;4915374;28;20464;-49
2023/03/22 06:17:27;;;;;;;3.10;1.80;;;;;;;6.12;100.00;99865.34;4915380;28;20457;-49
2023/03/22 06:19:53;;;;;;;3.40;2.20;;;;;;;6.27;100.00;99870.34;4915144;29;20477;-49
2023/03/22 06:22:20;;;;;;;5.80;3.37;;;;;;;6.23;100.00;99876.59;4915568;29;20457;-50
2023/03/22 06:24:48;;;;;;;4.53;2.80;;;;;;;6.22;100.00;99877.47;4915056;29;20457;-50
2023/03/22 06:27:15;;;;;;;2.13;1.93;;;;;;;6.53;100.00;99878.66;4915123;29;20515;-50
2023/03/22 06:29:41;;;;;;;2.50;2.30;;;;;;;6.54;100.00;99880.38;4915179;29;20893;-49
2023/03/22 06:32:08;;;;;;;3.20;2.37;;;;;;;6.38;100.00;99880.72;4915141;29;20507;-49
2023/03/22 06:34:34;;;;;;;3.00;2.80;;;;;;;6.38;100.00;99886.00;4915058;29;20459;-49
2023/03/22 06:37:01;;;;;;;5.63;2.87;;;;;;;6.46;100.00;99889.38;4914880;28;20453;-50
2023/03/22 06:39:27;;;;;;;1.70;1.07;;;;;;;6.47;100.00;99884.06;4914921;29;20535;-49
2023/03/22 06:41:54;;;;;;;2.37;2.27;;;;;;;6.58;100.00;99886.50;4914943;29;20898;-50
2023/03/22 06:44:21;;;;;;;1.10;1.00;;;;;;;6.52;100.00;99882.19;4914985;29;20981;-49
2023/03/22 06:46:47;;;;;;;2.30;2.10;;;;;;;6.77;100.00;99882.59;4913899;29;20813;-50
2023/03/22 06:49:15;;;;;;;2.70;1.40;;;;;;;6.81;100.00;99884.28;4915005;28;20504;-49
2023/03/22 06:51:42;;;;;;;3.20;2.53;;;;;;;7.06;100.00;99889.06;4915235;28;20489;-49
2023/03/22 06:54:08;;;;;;;2.53;2.40;;;;;;;7.26;100.00;99889.50;4914924;29;20947;-50
2023/03/22 06:56:34;;;;;;;2.10;1.90;;;;;;;7.21;100.00;99896.66;4915136;29;20492;-50
2023/03/22 06:59:01;;;;;;;4.43;2.77;;;;;;;7.46;100.00;99904.94;4915056;29;20454;-50
2023/03/22 07:01:27;;;;;;;1.37;1.17;;;;;;;7.29;100.00;99891.22;4914167;28;20461;-50
2023/03/22 07:03:54;;;;;;;1.87;1.77;;;;;;;7.58;100.00;99886.16;4914972;29;20458;-49
2023/03/22 07:06:20;;;;;;;2.00;1.30;;;;;;;7.59;100.00;99892.31;4914944;28;20485;-50
2023/03/22 07:08:46;;;;;;;3.37;3.07;;;;;;;7.66;100.00;99888.59;4915132;28;20464;-49
2023/03/22 07:11:15;;;;;;;2.43;1.80;;;;;;;7.72;100.00;99889.34;4914006;28;20548;-50
2023/03/22 07:13:41;;;;;;;3.33;3.00;;;;;;;8.02;100.00;99876.28;4914193;28;20461;-49
2023/03/22 07:16:08;;;;;;;3.77;3.47;;;;;;;8.12;100.00;99869.00;4915735;29;20463;-50
2023/03/22 07:18:35;;;;;;;2.33;1.90;;;;;;;8.28;100.00;99865.03;4913503;29;20458;-50
2023/03/22 07:21:02;;;;;;;2.60;2.40;;;;;;;8.39;100.00;99878.03;4914740;29;20844;-50
2023/03/22 07:23:29;;;;;;;2.20;2.00;;;;;;;8.48;100.00;99873.34;4914351;29;20457;-51
2023/03/22 07:25:58;;;;;;;2.80;2.70;;;;;;;8.71;100.00;99866.56;4914467;29;20807;-50
2023/03/22 07:28:24;;;;;;;2.70;1.70;;;;;;;8.88;100.00;99867.81;4914349;29;20460;-51
2023/03/22 07:31:06;;;;;;;2.90;2.70;;;;;;;9.12;100.00;99860.06;4914627;29;20684;-51
2023/03/22 07:33:32;;;;;;;2.70;2.60;;;;;;;9.15;100.00;99868.78;4891533;29;20497;-50
2023/03/22 07:35:58;;;;;;;2.30;2.17;;;;;;;9.47;100.00;99870.50;4914127;28;20456;-51
2023/03/22 07:38:25;;;;;;;7.00;3.30;;;;;;;9.42;100.00;99869.75;4914575;28;20486;-50
2023/03/22 07:40:53;;;;;;;4.53;3.90;;;;;;;9.45;100.00;99871.44;4914270;28;20476;-51
2023/03/22 07:43:20;;;;;;;2.90;2.70;;;;;;;9.60;100.00;99875.44;4914252;29;20508;-51
2023/03/22 07:45:48;;;;;;;3.67;3.37;;;;;;;9.53;100.00;99874.72;4912896;29;21037;-50
2023/03/22 07:48:16;;;;;;;3.93;3.10;;;;;;;9.51;100.00;99873.91;4913145;28;20946;-50
2023/03/22 07:50:43;;;;;;;5.10;3.10;;;;;;;9.55;100.00;99872.91;4913803;28;20519;-51
2023/03/22 07:53:10;;;;;;;5.13;3.50;;;;;;;10.06;100.00;99867.69;4914409;29;20497;-51
2023/03/22 07:55:37;;;;;;;2.77;2.57;;;;;;;10.09;100.00;99870.25;4913814;29;20468;-50
2023/03/22 07:58:04;;;;;;;1.83;1.57;;;;;;;10.13;100.00;99868.34;4914042;29;20463;-51
2023/03/22 08:00:31;;;;;;;2.50;2.30;;;;;;;10.14;100.00;99863.91;4913498;29;20547;-51
2023/03/22 08:02:57;;;;;;;4.23;3.90;;;;;;;10.16;100.00;99864.75;4913781;29;20460;-51
2023/03/22 08:05:24;;;;;;;2.70;2.50;;;;;;;10.26;100.00;99866.19;4911266;28;20936;-50
2023/03/22 08:07:51;;;;;;;9.17;2.80;;;;;;;10.29;100.00;99864.31;4904164;29;20457;-50
2023/03/22 08:10:18;;;;;;;3.27;2.67;;;;;;;10.43;100.00;99866.50;4913791;29;20481;-50
2023/03/22 08:12:45;;;;;;;3.27;3.07;;;;;;;10.61;100.00;99862.31;4908591;29;20579;-50
2023/03/22 08:15:11;;;;;;;5.30;3.73;;;;;;;10.72;100.00;99853.97;4913712;29;20457;-50
2023/03/22 08:17:38;;;;;;;2.50;2.40;;;;;;;10.79;100.00;99860.78;4913514;28;20519;-51
2023/03/22 08:20:08;;;;;;;3.43;3.23;;;;;;;11.00;100.00;99859.13;4913729;29;20508;-50
2023/03/22 08:22:35;;;;;;;2.77;2.67;;;;;;;11.10;100.00;99855.19;4913652;29;20454;-51
2023/03/22 08:25:03;;;;;;;3.07;2.70;;;;;;;11.20;100.00;99848.59;4913534;28;20457;-50
2023/03/22 08:27:30;;;;;;;2.47;2.27;;;;;;;11.07;100.00;99848.19;4913605;29;20457;-50
2023/03/22 08:29:57;;;;;;;2.13;2.03;;;;;;;11.36;100.00;99835.56;4914893;28;20477;-50
2023/03/22 08:32:23;;;;;;;4.80;2.47;;;;;;;11.61;100.00;99838.13;4914146;28;20516;-50
2023/03/22 08:34:50;;;;;;;2.60;2.20;;;;;;;11.79;100.00;99837.44;4914334;29;20461;-51
2023/03/22 08:37:19;;;;;;;20.73;3.27;;;;;;;11.82;100.00;99831.97;4913550;29;20788;-51
2023/03/22 08:39:45;;;;;;;4.77;2.10;;;;;;;12.03;100.00;99825.75;4913319;29;20477;-51
2023/03/22 08:42:12;;;;;;;1.70;1.60;;;;;;;12.07;100.00;99830.03;4913455;29;20885;-52
2023/03/22 08:44:39;;;;;;;2.03;1.93;;;;;;;12.31;100.00;99821.91;4913257;28;20463;-52
2023/03/22 08:47:07;;;;;;;5.60;2.73;;;;;;;12.49;100.00;99825.59;4913327;29;21001;-52
2023/03/22 08:49:34;;;;;;;1.90;1.80;;;;;;;12.63;100.00;99826.72;4913236;29;20473;-52
2023/03/22 08:52:00;;;;;;;2.17;1.47;;;;;;;12.79;99.90;99818.00;4913260;29;20507;-52
2023/03/22 08:54:31;;;;;;;2.60;2.40;;;;;;;12.76;99.62;99808.34;4913154;29;20548;-52
2023/03/22 08:56:59;;;;;;;2.20;1.70;;;;;;;12.91;98.36;99815.66;4913279;29;20460;-52
2023/03/22 08:59:26;;;;;;;1.40;1.30;;;;;;;12.98;98.60;99808.22;4889920;29;20485;-52
2023/03/22 09:01:53;;;;;;;2.60;2.20;;;;;;;13.23;98.30;99811.50;4916861;29;20449;-53
2023/03/22 09:04:19;;;;;;;4.63;2.10;;;;;;;13.20;97.94;99800.13;4916705;29;20464;-52
2023/03/22 09:06:46;;;;;;;2.57;2.00;;;;;;;13.36;97.94;99805.59;4903862;28;20533;-52
2023/03/22 09:09:12;;;;;;;1.40;1.23;;;;;;;13.39;97.40;99803.63;4916502;28;20884;-52
2023/03/22 09:11:41;;;;;;;4.30;2.60;;;;;;;13.50;98.35;99805.81;4911159;28;20468;-50
2023/03/22 09:14:09;;;;;;;0.97;0.97;;;;;;;13.52;97.15;99802.13;4916465;29;20489;-50
2023/03/22 09:16:35;;;;;;;1.00;0.90;;;;;;;13.66;97.08;99809.44;4916370;29;20453;-51
2023/03/22 09:19:02;;;;;;;2.33;1.13;;;;;;;13.70;95.17;99802.16;4915240;29;20460;-51
2023/03/22 09:21:29;;;;;;;1.13;1.07;;;;;;;13.69;94.70;99797.75;4916284;29;20457;-51
2023/03/22 09:23:55;;;;;;;4.30;0.70;;;;;;;13.64;94.56;99797.97;4916395;29;20453;-51
2023/03/22 09:26:23;;;;;;;1.10;1.00;;;;;;;13.97;93.66;99794.56;4916004;28;20532;-50
2023/03/22 09:28:49;;;;;;;0.70;0.70;;;;;;;14.04;93.65;99785.31;4916248;29;20464;-53
2023/03/22 09:31:16;;;;;;;0.80;0.77;;;;;;;13.96;92.35;99787.50;4915133;29;20461;-54
2023/03/22 09:33:45;;;;;;;1.80;1.70;;;;;;;14.12;92.29;99788.47;4916167;28;20492;-54
2023/03/22 09:36:12;;;;;;;1.23;0.97;;;;;;;14.18;91.57;99788.13;4916096;29;20857;-54
2023/03/22 09:38:40;;;;;;;0.80;0.70;;;;;;;14.41;91.24;99786.97;4916137;29;20484;-54
2023/03/22 09:41:35;;;;;;;1.67;1.00;;;;;;;14.59;90.52;99780.66;4915749;29;20516;-54
2023/03/22 09:44:06;;;;;;;0.73;0.73;;;;;;;14.46;88.95;99768.88;4922179;28;20535;-53
2023/03/22 09:46:36;;;;;;;6.43;2.03;;;;;;;14.72;88.90;99780.88;4916094;28;20949;-53
2023/03/22 09:49:09;;;;;;;0.50;0.50;;;;;;;14.74;88.23;99765.59;4915801;29;20495;-54
2023/03/22 09:51:53;;;;;;;0.77;0.67;;;;;;;14.73;88.12;99772.75;4916038;29;20567;-54
2023/03/22 09:54:40;;;;;;;4.90;0.53;;;;;;;14.87;86.11;99768.47;4916015;29;20547;-54
2023/03/22 09:57:19;;;;;;;1.77;0.60;;;;;;;14.91;87.13;99760.19;4916331;28;20942;-53
2023/03/22 09:59:59;;;;;;;1.17;1.07;;;;;;;14.87;85.41;99757.75;4917860;29;20507;-54
2023/03/22 10:02:44;;;;;;;3.23;0.80;;;;;;;15.00;84.26;99770.38;4916457;29;20536;-53
2023/03/22 10:05:32;;;;;;;0.70;0.50;;;;;;;14.96;84.13;99767.97;4915496;28;20982;-54
2023/03/22 10:08:11;;;;;;;0.60;0.40;;;;;;;15.21;83.45;99762.97;4907695;28;20453;-53
2023/03/22 10:10:41;;;;;;;1.20;0.90;;;;;;;15.41;82.87;99761.84;4915918;29;20473;-53
2023/03/22 10:13:26;;;;;;;0.87;0.70;;;;;;;15.58;80.99;99761.75;4912695;29;20501;-54
2023/03/22 10:16:05;;;;;;;1.17;0.60;;;;;;;15.83;80.43;99763.03;4894669;29;20460;-53
2023/03/22 10:18:36;;;;;;;20.50;0.90;;;;;;;15.87;79.94;99761.91;4915429;28;20491;-54
2023/03/22 10:21:04;;;;;;;0.83;0.83;;;;;;;15.88;78.85;99760.94;4915433;29;20848;-53
2023/03/22 10:23:42;;;;;;;0.40;0.30;;;;;;;15.92;78.62;99763.38;4915480;29;20449;-54
2023/03/22 10:26:18;;;;;;;1.20;0.60;;;;;;;15.87;78.01;99762.75;4915362;29;20453;-53
2023/03/22 10:28:52;;;;;;;0.60;0.50;;;;;;;15.84;77.96;99759.41;4915239;29;20503;-54
2023/03/22 10:31:20;;;;;;;1.70;0.73;;;;;;;15.87;76.56;99765.44;4915477;29;20457;-54
2023/03/22 10:34:02;;;;;;;1.33;1.10;;;;;;;15.90;76.65;99761.75;4915572;28;20588;-54
2023/03/22 10:36:33;;;;;;;0.50;0.40;;;;;;;15.88;77.33;99759.13;4915180;29;20457;-54
2023/03/22 10:39:07;;;;;;;0.50;0.47;;;;;;;15.73;76.49;99775.25;4915170;29;20453;-54
2023/03/22 10:41:35;;;;;;;0.77;0.60;;;;;;;15.64;75.92;99764.13;4890891;28;20448;-54
2023/03/22 10:44:04;;;;;;;5.30;0.40;;;;;;;15.68;74.75;99762.13;4915151;29;20460;-54
2023/03/22 10:46:37;;;;;;;0.60;0.40;;;;;;;15.85;73.70;99762.00;4915300;29;20876;-52
2023/03/22 10:49:06;;;;;;;0.70;0.67;;;;;;;15.94;74.32;99768.63;4914869;28;20875;-53
2023/03/22 10:51:50;;;;;;;1.37;0.50;;;;;;;16.05;73.71;99770.69;4915101;29;20457;-54
2023/03/22 10:54:20;;;;;;;0.80;0.77;;;;;;;16.19;72.63;99770.72;4914768;29;21028;-54
2023/03/22 10:56:46;;;;;;;1.10;0.47;;;;;;;16.27;72.48;99766.63;4914997;29;20464;-54
2023/03/22 10:59:48;;;;;;;0.70;0.70;;;;;;;16.49;73.73;99770.69;4914686;29;20477;-54
2023/03/22 11:02:20;;;;;;;0.60;0.50;;;;;;;16.32;71.33;99769.03;4914579;28;20455;-53
2023/03/22 11:04:53;;;;;;;0.50;0.40;;;;;;;16.44;71.25;99759.34;4913789;28;20457;-54
2023/03/22 11:07:41;;;;;;;0.50;0.40;;;;;;;16.56;70.85;99761.28;4902191;28;20458;-53
2023/03/22 11:10:07;;;;;;;0.77;0.60;;;;;;;16.92;72.04;99746.56;4915204;29;20564;-50
2023/03/22 11:12:36;;;;;;;0.40;0.30;;;;;;;17.03;69.32;99746.75;4909673;28;20815;-50
2023/03/22 11:15:16;;;;;;;0.57;0.40;;;;;;;17.04;70.15;99743.97;4914777;29;20461;-50
2023/03/22 11:17:43;;;;;;;1.47;0.80;;;;;;;17.33;68.60;99754.66;4914733;28;20423;-50
2023/03/22 11:20:15;;;;;;;2.53;0.80;;;;;;;17.15;68.68;99751.34;4914489;28;20500;-50
2023/03/22 11:22:44;;;;;;;1.63;0.70;;;;;;;17.22;66.59;99746.41;4913197;29;20481;-51
2023/03/22 11:25:17;;;;;;;0.50;0.40;;;;;;;17.40;67.04;99746.06;4914258;29;20468;-50
2023/03/22 11:28:08;;;;;;;2.20;0.63;;;;;;;17.29;66.62;99735.19;4914664;28;20531;-50
2023/03/22 11:30:35;;;;;;;0.50;0.50;;;;;;;17.44;66.54;99731.50;4895488;29;20473;-51
2023/03/22 11:33:15;;;;;;;0.50;0.40;;;;;;;17.53;66.21;99738.06;4914181;29;20576;-50
2023/03/22 11:35:52;;;;;;;6.10;0.80;;;;;;;17.45;66.79;99733.22;4914216;29;20495;-51
2023/03/22 11:38:28;;;;;;;0.50;0.40;;;;;;;17.43;65.18;99732.47;4889550;28;20448;-50
2023/03/22 11:41:01;;;;;;;0.50;0.30;;;;;;;17.57;64.96;99731.56;4914463;29;20845;-50
2023/03/22 11:43:38;;;;;;;0.70;0.40;;;;;;;17.60;63.28;99723.28;4914472;29;20424;-50
2023/03/22 11:46:07;;;;;;;1.50;0.70;;;;;;;17.59;63.80;99718.88;4914113;28;20453;-52
2023/03/22 11:48:35;;;;;;;1.07;0.57;;;;;;;17.62;63.83;99718.66;4915004;29;20463;-50